createdAt,value
2023-03-14T00:00:34.744Z,12.52
2023-03-14T00:05:36.244Z,12.08
2023-03-14T00:10:38.400Z,11.75
2023-03-14T00:15:40.094Z,12.00
2023-03-14T00:20:42.172Z,11.99
2023-03-14T00:25:43.937Z,12.22
2023-03-14T00:30:45.769Z,12.53
2023-03-14T00:35:56.026Z,13.11
2023-03-14T00:40:57.593Z,13.16
2023-03-14T00:45:59.815Z,13.14
2023-03-14T00:51:03.638Z,13.39
2023-03-14T00:56:09.265Z,13.46
2023-03-14T01:01:18.202Z,13.49
2023-03-14T01:06:25.925Z,13.40
2023-03-14T01:11:33.205Z,13.50
2023-03-14T01:16:35.839Z,13.50
2023-03-14T01:21:38.241Z,13.48
2023-03-14T01:26:41.251Z,13.20
2023-03-14T01:31:45.651Z,12.10
2023-03-14T01:36:47.518Z,11.77
2023-03-14T01:41:50.427Z,11.64
2023-03-14T01:46:52.295Z,11.06
2023-03-14T01:51:57.053Z,10.81
2023-03-14T01:57:08.158Z,10.88
2023-03-14T02:02:13.597Z,10.80
2023-03-14T02:07:21.668Z,10.57
2023-03-14T02:12:44.168Z,10.46
2023-03-14T02:17:52.706Z,10.40
2023-03-14T02:23:02.565Z,10.41
2023-03-14T02:28:06.060Z,10.33
2023-03-14T02:33:20.027Z,10.43
2023-03-14T02:38:32.268Z,10.31
2023-03-14T02:43:36.647Z,10.17
2023-03-14T02:48:56.453Z,9.74
2023-03-14T02:53:59.964Z,9.34
2023-03-14T02:59:06.070Z,9.12
2023-03-14T03:04:18.559Z,9.12
2023-03-14T03:09:21.695Z,9.53
2023-03-14T03:14:23.980Z,10.09
2023-03-14T03:19:26.094Z,10.29
2023-03-14T03:24:29.209Z,10.43
2023-03-14T03:29:31.639Z,10.78
2023-03-14T03:34:33.924Z,10.85
2023-03-14T03:39:35.590Z,10.86
2023-03-14T03:44:37.563Z,10.60
2023-03-14T03:49:39.457Z,10.67
2023-03-14T03:54:45.370Z,10.75
2023-03-14T03:59:50.224Z,10.83
2023-03-14T04:04:52.474Z,11.07
2023-03-14T04:09:55.304Z,11.09
2023-03-14T04:15:07.702Z,11.09
2023-03-14T04:20:13.385Z,11.06
2023-03-14T04:25:16.540Z,11.20
2023-03-14T04:30:23.037Z,11.25
2023-03-14T04:35:35.442Z,11.45
2023-03-14T04:40:43.981Z,11.14
2023-03-14T04:45:48.161Z,10.93
2023-03-14T04:50:50.424Z,10.96
2023-03-14T04:55:55.366Z,10.88
2023-03-14T05:01:05.286Z,10.93
2023-03-14T05:06:36.052Z,10.92
2023-03-14T05:11:44.018Z,11.03
2023-03-14T05:17:05.414Z,10.98
2023-03-14T05:22:21.794Z,11.11
2023-03-14T05:27:55.111Z,11.19
2023-03-14T05:33:18.533Z,11.23
2023-03-14T05:38:31.917Z,11.34
2023-03-14T05:43:44.126Z,11.39
2023-03-14T05:48:57.474Z,11.37
2023-03-14T05:54:11.607Z,11.47
2023-03-14T05:59:36.949Z,11.44
2023-03-14T06:04:49.576Z,11.48
2023-03-14T06:09:52.172Z,11.31
2023-03-14T06:14:55.481Z,11.01
2023-03-14T06:19:57.431Z,11.06
2023-03-14T06:24:58.975Z,11.17
2023-03-14T06:30:02.285Z,11.24
2023-03-14T06:35:06.711Z,11.47
2023-03-14T06:40:13.902Z,11.56
2023-03-14T06:45:30.176Z,11.67
2023-03-14T06:50:33.844Z,11.70
2023-03-14T06:55:36.109Z,11.85
2023-03-14T07:00:38.204Z,12.08
2023-03-14T07:05:39.865Z,11.98
2023-03-14T07:10:41.649Z,12.05
2023-03-14T07:15:45.803Z,11.89
2023-03-14T07:20:48.924Z,12.02
2023-03-14T07:25:52.532Z,12.53
2023-03-14T07:30:56.095Z,12.48
2023-03-14T07:36:03.449Z,12.81
2023-03-14T07:41:07.606Z,12.93
2023-03-14T07:46:12.893Z,13.36
2023-03-14T07:51:14.646Z,13.84
2023-03-14T07:56:16.523Z,13.65
2023-03-14T08:01:18.073Z,13.79
2023-03-14T08:06:20.100Z,14.33
2023-03-14T08:11:22.962Z,14.18
2023-03-14T08:16:25.243Z,14.09
2023-03-14T08:21:27.322Z,14.00
2023-03-14T08:26:29.370Z,14.14
2023-03-14T08:31:31.465Z,14.00
2023-03-14T08:36:33.473Z,14.19
2023-03-14T08:41:36.338Z,13.96
2023-03-14T08:46:38.649Z,13.29
2023-03-14T08:51:41.559Z,13.52
2023-03-14T08:56:43.653Z,13.55
2023-03-14T09:01:46.393Z,12.85
2023-03-14T09:06:47.901Z,12.34
2023-03-14T09:11:50.045Z,12.66
2023-03-14T09:16:52.511Z,12.68
2023-03-14T09:21:55.917Z,12.89
2023-03-14T09:26:58.487Z,12.89
2023-03-14T09:32:01.716Z,12.86
2023-03-14T09:37:04.076Z,12.44
2023-03-14T09:42:09.916Z,12.40
2023-03-14T09:47:15.772Z,12.18
2023-03-14T09:52:27.788Z,9.95
2023-03-14T09:57:35.024Z,9.49
2023-03-14T10:02:38.533Z,9.36
2023-03-14T10:07:41.159Z,9.30
2023-03-14T10:12:47.075Z,9.22
2023-03-14T10:17:50.791Z,9.36
2023-03-14T10:22:54.548Z,9.19
2023-03-14T10:27:56.441Z,9.41
2023-03-14T10:33:08.460Z,9.15
2023-03-14T10:38:17.308Z,9.23
2023-03-14T10:43:23.883Z,9.03
2023-03-14T10:48:34.811Z,9.17
2023-03-14T10:53:45.827Z,9.17
2023-03-14T10:58:51.470Z,9.05
2023-03-14T11:04:16.546Z,9.15
2023-03-14T11:09:45.941Z,9.03
2023-03-14T11:14:55.190Z,8.98
2023-03-14T11:20:30.011Z,9.23
2023-03-14T11:25:53.163Z,9.35
2023-03-14T11:31:01.835Z,9.68
2023-03-14T11:36:25.726Z,9.78
2023-03-14T11:41:28.066Z,10.26
2023-03-14T11:46:39.506Z,10.67
2023-03-14T11:51:45.440Z,10.17
2023-03-14T11:57:01.398Z,8.54
2023-03-14T12:02:20.540Z,7.22
2023-03-14T12:07:36.373Z,7.87
2023-03-14T12:12:39.312Z,8.25
2023-03-14T12:17:42.815Z,8.68
2023-03-14T12:22:57.542Z,8.72
2023-03-14T12:27:59.237Z,9.03
2023-03-14T12:33:09.794Z,8.87
2023-03-14T12:38:33.350Z,8.83
2023-03-14T12:43:36.686Z,8.59
2023-03-14T12:48:41.219Z,8.48
2023-03-14T12:53:55.881Z,8.68
2023-03-14T12:58:57.779Z,8.52
2023-03-14T13:04:11.816Z,8.72
2023-03-14T13:09:29.292Z,8.42
2023-03-14T13:14:33.047Z,8.59
2023-03-14T13:19:35.603Z,8.55
2023-03-14T13:24:37.936Z,8.36
2023-03-14T13:29:40.019Z,8.19
2023-03-14T13:34:42.321Z,8.55
2023-03-14T13:39:44.318Z,8.82
2023-03-14T13:44:47.885Z,8.94
2023-03-14T13:49:51.083Z,8.94
2023-03-14T13:54:57.751Z,8.72
2023-03-14T14:00:04.543Z,8.41
2023-03-14T14:05:07.211Z,8.09
2023-03-14T14:10:13.454Z,8.24
2023-03-14T14:15:27.879Z,8.29
2023-03-14T14:20:31.685Z,8.47
2023-03-14T14:25:34.805Z,8.59
2023-03-14T14:30:38.199Z,8.77
2023-03-14T14:35:40.239Z,9.01
2023-03-14T14:40:51.362Z,8.66
2023-03-14T14:45:55.160Z,8.68
2023-03-14T14:51:03.096Z,8.55
2023-03-14T14:56:08.643Z,8.59
2023-03-14T15:01:23.730Z,8.70
2023-03-14T15:06:29.869Z,8.60
2023-03-14T15:11:33.549Z,8.74
2023-03-14T15:16:36.314Z,8.86
2023-03-14T15:21:38.190Z,8.74
2023-03-14T15:26:40.946Z,8.79
2023-03-14T15:31:43.405Z,8.86
2023-03-14T15:36:45.132Z,8.83
2023-03-14T15:41:46.772Z,8.96
2023-03-14T15:46:48.387Z,8.88
2023-03-14T15:51:49.932Z,8.82
2023-03-14T15:56:51.916Z,8.77
2023-03-14T16:01:54.117Z,8.66
2023-03-14T16:06:55.659Z,8.62
2023-03-14T16:11:57.289Z,8.39
2023-03-14T16:16:59.408Z,8.27
2023-03-14T16:22:01.041Z,8.31
2023-03-14T16:27:08.651Z,8.17
2023-03-14T16:32:10.994Z,8.24
2023-03-14T16:37:39.257Z,8.17
2023-03-14T16:54:11.932Z,8.12
2023-03-14T16:59:16.204Z,8.19
2023-03-14T17:04:18.091Z,8.18
2023-03-14T17:09:19.724Z,8.11
2023-03-14T17:14:21.274Z,7.96
2023-03-14T17:19:25.578Z,8.08
2023-03-14T17:24:27.339Z,8.17
2023-03-14T17:29:28.924Z,8.20
2023-03-14T17:34:30.443Z,8.11
2023-03-14T17:39:32.157Z,8.04
2023-03-14T17:44:34.997Z,8.07
2023-03-14T17:49:36.738Z,8.10
2023-03-14T17:54:38.735Z,7.95
2023-03-14T17:59:40.362Z,7.93
2023-03-14T18:04:41.921Z,7.95
2023-03-14T18:09:43.616Z,7.89
2023-03-14T18:14:45.394Z,7.89
2023-03-14T18:19:46.908Z,7.87
2023-03-14T18:24:48.501Z,7.93
2023-03-14T18:29:50.458Z,7.75
2023-03-14T18:34:52.000Z,7.77
2023-03-14T18:39:53.771Z,7.68
2023-03-14T18:44:55.330Z,7.56
2023-03-14T18:49:56.878Z,7.48
2023-03-14T18:54:58.406Z,7.53
2023-03-14T19:00:00.062Z,7.38
2023-03-14T19:05:01.684Z,7.33
2023-03-14T19:10:03.430Z,7.19
2023-03-14T19:15:05.397Z,7.02
2023-03-14T19:20:07.369Z,7.09
2023-03-14T19:25:10.194Z,7.01
2023-03-14T19:30:11.939Z,6.84
2023-03-14T19:35:13.879Z,6.87
2023-03-14T19:40:15.662Z,6.72
2023-03-14T19:45:17.368Z,6.65
2023-03-14T19:50:18.961Z,6.66
2023-03-14T19:55:20.793Z,6.55
2023-03-14T20:00:22.363Z,6.52
2023-03-14T20:05:24.424Z,6.47
2023-03-14T20:10:26.130Z,6.36
2023-03-14T20:15:27.914Z,6.46
2023-03-14T20:20:29.533Z,6.33
2023-03-14T20:25:31.164Z,6.35
2023-03-14T20:30:33.239Z,6.24
2023-03-14T20:35:34.869Z,6.18
2023-03-14T20:40:36.365Z,6.13
2023-03-14T20:45:37.876Z,5.97
2023-03-14T20:50:39.546Z,5.79
2023-03-14T20:55:41.085Z,5.76
2023-03-14T21:00:47.789Z,5.60
2023-03-14T21:05:49.904Z,5.60
2023-03-14T21:10:53.634Z,5.52
2023-03-14T21:15:55.470Z,5.25
2023-03-14T21:20:57.442Z,5.21
2023-03-14T21:25:59.173Z,5.08
2023-03-14T21:31:08.102Z,4.97
2023-03-14T21:36:09.927Z,4.76
2023-03-14T21:41:11.424Z,4.98
2023-03-14T21:46:13.244Z,5.13
2023-03-14T21:51:14.779Z,5.11
2023-03-14T21:56:16.318Z,5.23
2023-03-14T22:01:18.019Z,4.87
2023-03-14T22:06:19.618Z,4.81
2023-03-14T22:11:23.141Z,4.69
2023-03-14T22:16:24.784Z,4.81
2023-03-14T22:21:26.456Z,4.84
2023-03-14T22:26:27.991Z,4.77
2023-03-14T22:37:58.281Z,4.71
2023-03-14T22:42:59.799Z,4.71
2023-03-14T22:48:01.461Z,4.68
2023-03-14T22:53:03.287Z,4.76
2023-03-14T22:58:04.856Z,4.69
2023-03-14T23:03:06.497Z,4.65
2023-03-14T23:08:08.115Z,4.64
2023-03-14T23:13:10.804Z,4.48
2023-03-14T23:18:12.667Z,4.63
2023-03-14T23:23:14.229Z,4.57
2023-03-14T23:28:15.735Z,4.49
2023-03-14T23:33:17.240Z,4.54
2023-03-14T23:38:18.816Z,4.51
2023-03-14T23:43:21.301Z,4.53
2023-03-14T23:48:25.350Z,4.03
2023-03-14T23:53:28.692Z,3.91
2023-03-14T23:58:31.469Z,3.81
